createdAt,value
2022-11-09T00:01:23.788Z,11.66
2022-11-09T00:03:56.290Z,11.65
2022-11-09T00:06:28.188Z,11.64
2022-11-09T00:09:05.741Z,11.64
2022-11-09T00:11:38.833Z,11.69
2022-11-09T00:14:10.676Z,11.68
2022-11-09T00:16:42.182Z,11.71
2022-11-09T00:19:14.480Z,11.71
2022-11-09T00:21:46.006Z,11.74
2022-11-09T00:24:17.905Z,11.74
2022-11-09T00:26:49.471Z,11.75
2022-11-09T00:29:21.439Z,11.74
2022-11-09T00:31:52.940Z,11.75
2022-11-09T00:34:24.967Z,11.76
2022-11-09T00:36:56.468Z,11.77
2022-11-09T00:39:28.000Z,11.82
2022-11-09T00:41:59.542Z,11.79
2022-11-09T00:44:31.376Z,11.83
2022-11-09T00:47:02.870Z,11.80
2022-11-09T00:49:34.828Z,11.83
2022-11-09T00:52:06.327Z,11.83
2022-11-09T00:54:38.285Z,11.81
2022-11-09T00:57:09.795Z,11.84
2022-11-09T00:59:41.620Z,11.78
2022-11-09T01:02:13.109Z,11.79
2022-11-09T01:04:44.912Z,11.77
2022-11-09T01:07:16.504Z,11.77
2022-11-09T01:09:48.398Z,11.74
2022-11-09T01:12:19.908Z,11.73
2022-11-09T01:14:51.726Z,11.70
2022-11-09T01:17:23.292Z,11.68
2022-11-09T01:19:55.108Z,11.65
2022-11-09T01:22:26.613Z,11.63
2022-11-09T01:24:58.439Z,11.59
2022-11-09T01:27:29.938Z,11.55
2022-11-09T01:30:01.762Z,11.51
2022-11-09T01:32:33.284Z,11.46
2022-11-09T01:35:04.802Z,11.40
2022-11-09T01:37:36.340Z,11.35
2022-11-09T01:40:08.210Z,11.29
2022-11-09T01:42:39.721Z,11.23
2022-11-09T01:45:12.265Z,11.18
2022-11-09T01:47:43.744Z,11.13
2022-11-09T01:50:15.767Z,11.04
2022-11-09T01:52:47.262Z,10.98
2022-11-09T01:55:19.118Z,10.97
2022-11-09T01:57:50.666Z,10.95
2022-11-09T02:00:22.313Z,10.38
2022-11-09T02:02:53.846Z,10.90
2022-11-09T02:05:25.709Z,10.87
2022-11-09T02:07:57.264Z,10.84
2022-11-09T02:10:29.188Z,10.78
2022-11-09T02:13:01.083Z,10.73
2022-11-09T02:15:32.621Z,10.66
2022-11-09T02:18:04.461Z,10.62
2022-11-09T02:20:35.957Z,10.60
2022-11-09T02:23:07.485Z,10.59
2022-11-09T02:25:38.966Z,10.55
2022-11-09T02:28:10.741Z,10.52
2022-11-09T02:30:42.266Z,10.51
2022-11-09T02:33:14.051Z,10.51
2022-11-09T02:35:45.573Z,10.49
2022-11-09T02:38:17.470Z,10.49
2022-11-09T02:40:48.984Z,10.49
2022-11-09T02:43:21.050Z,10.49
2022-11-09T02:45:52.749Z,10.45
2022-11-09T02:48:24.585Z,10.43
2022-11-09T02:50:56.078Z,10.41
2022-11-09T02:53:27.896Z,10.37
2022-11-09T02:55:59.394Z,10.37
2022-11-09T02:58:31.252Z,10.37
2022-11-09T03:01:03.157Z,10.34
2022-11-09T03:03:35.136Z,10.37
2022-11-09T03:06:06.638Z,10.38
2022-11-09T03:08:38.555Z,10.42
2022-11-09T03:11:10.054Z,10.49
2022-11-09T03:13:42.069Z,10.52
2022-11-09T03:16:14.141Z,10.57
2022-11-09T03:18:45.941Z,10.67
2022-11-09T03:21:17.480Z,10.71
2022-11-09T03:23:49.296Z,10.64
2022-11-09T03:26:20.818Z,10.68
2022-11-09T03:28:52.618Z,10.74
2022-11-09T03:31:24.128Z,10.78
2022-11-09T03:33:56.130Z,10.84
2022-11-09T03:36:27.647Z,10.89
2022-11-09T03:38:59.486Z,10.92
2022-11-09T03:41:31.016Z,10.94
2022-11-09T03:44:02.870Z,10.98
2022-11-09T03:46:34.351Z,11.01
2022-11-09T03:49:05.875Z,11.04
2022-11-09T03:51:37.435Z,11.07
2022-11-09T03:54:09.198Z,11.10
2022-11-09T03:56:41.135Z,11.14
2022-11-09T03:59:12.982Z,11.19
2022-11-09T04:01:44.530Z,11.20
2022-11-09T04:04:16.402Z,11.24
2022-11-09T04:06:47.995Z,11.21
2022-11-09T04:09:19.875Z,11.25
2022-11-09T04:11:51.413Z,11.30
2022-11-09T04:14:23.473Z,11.37
2022-11-09T04:16:54.959Z,11.38
2022-11-09T04:19:27.013Z,11.38
2022-11-09T04:21:58.499Z,11.40
2022-11-09T04:24:30.031Z,11.43
2022-11-09T04:27:01.583Z,11.44
2022-11-09T04:29:33.509Z,11.44
2022-11-09T04:32:05.017Z,11.45
2022-11-09T04:34:36.884Z,11.45
2022-11-09T04:37:08.378Z,11.42
2022-11-09T04:39:40.316Z,11.37
2022-11-09T04:42:11.835Z,11.28
2022-11-09T04:44:43.725Z,11.25
2022-11-09T04:47:15.232Z,11.22
2022-11-09T04:49:47.044Z,11.19
2022-11-09T04:52:18.566Z,11.07
2022-11-09T04:54:50.576Z,11.05
2022-11-09T04:57:22.066Z,11.03
2022-11-09T04:59:54.123Z,11.05
2022-11-09T05:02:25.631Z,11.03
2022-11-09T05:04:57.461Z,11.03
2022-11-09T05:07:28.951Z,11.04
2022-11-09T05:10:00.716Z,11.07
2022-11-09T05:12:32.211Z,11.04
2022-11-09T05:15:04.236Z,11.05
2022-11-09T05:17:36.100Z,11.04
2022-11-09T05:20:07.628Z,10.99
2022-11-09T05:22:58.169Z,10.99
2022-11-09T05:25:29.716Z,10.93
2022-11-09T05:28:01.560Z,10.97
2022-11-09T05:30:33.081Z,10.96
2022-11-09T05:33:05.103Z,10.95
2022-11-09T05:35:36.665Z,10.98
2022-11-09T05:38:08.494Z,10.99
2022-11-09T05:40:39.977Z,11.00
2022-11-09T05:43:11.842Z,11.03
2022-11-09T05:45:44.014Z,11.06
2022-11-09T05:48:16.143Z,11.06
2022-11-09T05:50:47.700Z,11.12
2022-11-09T05:53:19.924Z,11.10
2022-11-09T05:55:51.819Z,11.15
2022-11-09T05:58:23.421Z,11.15
2022-11-09T06:00:54.971Z,11.15
2022-11-09T06:03:26.862Z,11.14
2022-11-09T06:05:58.349Z,11.16
2022-11-09T06:08:30.158Z,11.12
2022-11-09T06:11:01.716Z,11.17
2022-11-09T06:13:33.388Z,11.20
2022-11-09T06:16:04.889Z,11.23
2022-11-09T06:18:36.851Z,11.27
2022-11-09T06:21:08.388Z,11.27
2022-11-09T06:23:40.006Z,11.29
2022-11-09T06:26:11.508Z,11.28
2022-11-09T06:28:43.541Z,11.30
2022-11-09T06:31:15.116Z,11.35
2022-11-09T06:33:46.934Z,11.39
2022-11-09T06:36:18.535Z,11.39
2022-11-09T06:38:50.813Z,11.40
2022-11-09T06:41:22.338Z,11.38
2022-11-09T06:43:54.197Z,11.42
2022-11-09T06:46:25.704Z,11.46
2022-11-09T06:48:57.237Z,11.48
2022-11-09T06:51:28.758Z,11.48
2022-11-09T06:54:00.702Z,11.46
2022-11-09T06:56:32.324Z,11.44
2022-11-09T06:59:04.411Z,11.39
2022-11-09T07:01:37.559Z,11.38
2022-11-09T07:04:09.155Z,11.33
2022-11-09T07:06:40.711Z,11.32
2022-11-09T07:09:12.597Z,11.28
2022-11-09T07:11:44.098Z,11.19
2022-11-09T07:14:15.986Z,11.18
2022-11-09T07:16:47.492Z,11.22
2022-11-09T07:19:19.282Z,11.18
2022-11-09T07:21:50.815Z,11.15
2022-11-09T07:24:22.651Z,11.09
2022-11-09T07:26:54.166Z,11.04
2022-11-09T07:29:26.057Z,11.03
2022-11-09T07:31:57.561Z,10.98
2022-11-09T07:34:29.454Z,10.92
2022-11-09T07:37:00.972Z,10.89
2022-11-09T07:39:32.912Z,10.95
2022-11-09T07:42:04.424Z,10.95
2022-11-09T07:44:36.325Z,11.01
2022-11-09T07:47:07.964Z,11.05
2022-11-09T07:49:39.792Z,11.02
2022-11-09T07:52:11.332Z,10.96
2022-11-09T07:54:45.168Z,11.00
2022-11-09T07:57:18.629Z,11.04
2022-11-09T07:59:51.830Z,11.09
2022-11-09T08:02:23.577Z,11.12
2022-11-09T08:04:55.167Z,11.16
2022-11-09T08:07:26.684Z,11.35
2022-11-09T08:09:58.511Z,11.34
2022-11-09T08:12:35.758Z,10.89
2022-11-09T08:15:08.852Z,11.34
2022-11-09T08:17:40.773Z,11.33
2022-11-09T08:20:12.338Z,11.28
2022-11-09T08:22:44.299Z,11.27
2022-11-09T08:25:15.854Z,11.29
2022-11-09T08:27:47.390Z,11.32
2022-11-09T08:30:19.002Z,11.30
2022-11-09T08:32:51.041Z,10.83
2022-11-09T08:35:22.573Z,11.29
2022-11-09T08:37:54.525Z,11.30
2022-11-09T08:40:26.040Z,11.31
2022-11-09T08:42:57.907Z,11.38
2022-11-09T08:45:29.407Z,11.33
2022-11-09T08:48:01.471Z,11.28
2022-11-09T08:50:33.031Z,11.32
2022-11-09T08:53:04.855Z,11.29
2022-11-09T08:55:36.371Z,11.28
2022-11-09T08:58:08.312Z,11.43
2022-11-09T09:00:39.946Z,11.51
2022-11-09T09:03:11.527Z,11.52
2022-11-09T09:05:43.021Z,11.57
2022-11-09T09:08:16.169Z,10.66
2022-11-09T09:10:47.684Z,11.67
2022-11-09T09:13:22.894Z,11.75
2022-11-09T09:15:54.442Z,11.78
2022-11-09T09:18:26.327Z,11.91
2022-11-09T09:20:57.977Z,11.91
2022-11-09T09:23:29.577Z,12.00
2022-11-09T09:26:01.088Z,12.00
2022-11-09T09:28:32.598Z,12.10
2022-11-09T09:31:04.896Z,12.13
2022-11-09T09:33:36.879Z,12.32
2022-11-09T09:36:08.370Z,12.47
2022-11-09T09:38:40.189Z,12.79
2022-11-09T09:41:11.707Z,12.59
2022-11-09T09:43:44.013Z,12.52
2022-11-09T09:46:15.596Z,12.47
2022-11-09T09:48:47.560Z,12.98
2022-11-09T09:51:19.060Z,13.06
2022-11-09T09:53:50.904Z,12.84
2022-11-09T09:56:22.456Z,12.52
2022-11-09T09:58:53.971Z,12.64
2022-11-09T10:01:25.526Z,12.80
2022-11-09T10:03:57.756Z,12.92
2022-11-09T10:06:29.261Z,12.72
2022-11-09T10:09:01.315Z,12.81
2022-11-09T10:11:32.803Z,12.81
2022-11-09T10:14:04.986Z,12.56
2022-11-09T10:16:36.579Z,12.82
2022-11-09T10:19:08.528Z,12.80
2022-11-09T10:21:40.055Z,12.70
2022-11-09T10:24:11.583Z,12.69
2022-11-09T10:26:43.111Z,12.56
2022-11-09T10:29:16.425Z,12.54
2022-11-09T10:31:48.479Z,12.76
2022-11-09T10:34:20.376Z,12.87
2022-11-09T10:36:51.876Z,12.84
2022-11-09T10:39:24.171Z,12.88
2022-11-09T10:41:55.704Z,13.04
2022-11-09T10:44:27.538Z,13.54
2022-11-09T10:46:59.035Z,13.85
2022-11-09T10:49:31.021Z,13.92
2022-11-09T10:52:02.622Z,13.93
2022-11-09T10:54:35.543Z,13.90
2022-11-09T10:57:07.249Z,13.97
2022-11-09T10:59:39.295Z,14.23
2022-11-09T11:02:11.001Z,14.19
2022-11-09T11:04:43.618Z,14.06
2022-11-09T11:07:20.570Z,14.20
2022-11-09T11:09:53.074Z,14.14
2022-11-09T11:12:24.587Z,14.24
2022-11-09T11:14:56.368Z,14.37
2022-11-09T11:17:27.862Z,14.60
2022-11-09T11:19:59.662Z,14.53
2022-11-09T11:22:31.171Z,14.39
2022-11-09T11:25:03.398Z,14.54
2022-11-09T11:27:34.903Z,14.81
2022-11-09T11:30:07.069Z,14.73
2022-11-09T11:32:38.597Z,15.11
2022-11-09T11:35:10.443Z,14.88
2022-11-09T11:37:41.939Z,14.88
2022-11-09T11:40:13.843Z,14.71
2022-11-09T11:42:45.350Z,14.69
2022-11-09T11:45:39.396Z,14.46
2022-11-09T11:48:09.060Z,14.42
2022-11-09T11:50:40.592Z,14.26
2022-11-09T11:53:12.549Z,14.47
2022-11-09T11:55:44.047Z,14.67
2022-11-09T11:58:15.892Z,14.74
2022-11-09T12:00:47.384Z,14.86
2022-11-09T12:03:19.196Z,14.88
2022-11-09T12:05:50.898Z,14.76
2022-11-09T12:08:22.912Z,14.82
2022-11-09T12:10:54.761Z,14.82
2022-11-09T12:13:26.569Z,14.64
2022-11-09T12:15:58.380Z,14.72
2022-11-09T12:18:30.371Z,14.51
2022-11-09T12:21:01.875Z,14.58
2022-11-09T12:23:33.869Z,14.60
2022-11-09T12:26:08.455Z,14.68
2022-11-09T12:28:42.524Z,14.97
2022-11-09T12:31:14.080Z,14.89
2022-11-09T12:33:45.939Z,15.14
2022-11-09T12:36:17.479Z,15.00
2022-11-09T12:38:49.352Z,15.11
2022-11-09T12:41:21.226Z,14.94
2022-11-09T12:43:53.114Z,15.08
2022-11-09T12:46:24.628Z,15.34
2022-11-09T12:48:56.149Z,15.21
2022-11-09T12:51:27.658Z,15.23
2022-11-09T12:53:59.503Z,15.65
2022-11-09T12:56:31.003Z,15.63
2022-11-09T12:59:02.534Z,15.65
2022-11-09T13:01:34.124Z,15.38
2022-11-09T13:04:06.021Z,15.43
2022-11-09T13:06:37.545Z,15.34
2022-11-09T13:09:09.406Z,15.35
2022-11-09T13:11:40.956Z,15.36
2022-11-09T13:14:12.811Z,15.30
2022-11-09T13:16:44.307Z,15.42
2022-11-09T13:19:15.838Z,15.45
2022-11-09T13:21:47.358Z,15.51
2022-11-09T13:24:24.248Z,15.53
2022-11-09T13:26:56.341Z,15.45
2022-11-09T13:29:28.284Z,15.55
2022-11-09T13:31:59.820Z,15.47
2022-11-09T13:34:31.629Z,15.43
2022-11-09T13:37:03.115Z,15.33
2022-11-09T13:39:34.705Z,15.20
2022-11-09T13:42:06.220Z,15.20
2022-11-09T13:44:39.431Z,13.67
2022-11-09T13:47:11.506Z,15.17
2022-11-09T13:49:43.051Z,15.08
2022-11-09T13:52:14.719Z,15.06
2022-11-09T13:54:46.606Z,14.98
2022-11-09T13:57:18.140Z,14.97
2022-11-09T13:59:50.091Z,15.00
2022-11-09T14:02:21.596Z,14.74
2022-11-09T14:04:55.215Z,14.72
2022-11-09T14:07:27.597Z,14.61
2022-11-09T14:10:01.325Z,14.61
2022-11-09T14:12:33.285Z,14.56
2022-11-09T14:15:04.998Z,14.53
2022-11-09T14:17:37.161Z,14.55
2022-11-09T14:20:11.918Z,14.44
2022-11-09T14:22:44.490Z,14.38
2022-11-09T14:25:16.015Z,14.32
2022-11-09T14:27:48.275Z,14.18
2022-11-09T14:30:19.820Z,14.14
2022-11-09T14:32:51.693Z,14.10
2022-11-09T14:35:23.237Z,14.04
2022-11-09T14:37:55.191Z,14.00
2022-11-09T14:40:26.761Z,13.92
2022-11-09T14:42:58.915Z,13.81
2022-11-09T14:45:30.416Z,13.71
2022-11-09T14:48:01.951Z,13.63
2022-11-09T14:50:33.497Z,13.56
2022-11-09T14:53:05.724Z,13.50
2022-11-09T14:55:37.213Z,13.48
2022-11-09T14:58:08.883Z,13.43
2022-11-09T15:00:45.657Z,13.36
2022-11-09T15:03:17.562Z,13.30
2022-11-09T15:05:49.063Z,13.26
2022-11-09T15:08:21.505Z,13.20
2022-11-09T15:10:53.354Z,13.15
2022-11-09T15:13:25.292Z,13.10
2022-11-09T15:15:56.804Z,13.05
2022-11-09T15:18:33.719Z,12.99
2022-11-09T15:21:05.824Z,12.94
2022-11-09T15:23:37.816Z,12.90
2022-11-09T15:26:09.318Z,12.86
2022-11-09T15:28:41.106Z,12.84
2022-11-09T15:31:13.401Z,12.80
2022-11-09T15:33:45.463Z,12.74
2022-11-09T15:36:16.941Z,12.73
2022-11-09T15:38:48.775Z,12.71
2022-11-09T15:41:20.297Z,12.69
2022-11-09T15:43:52.234Z,12.63
2022-11-09T15:46:23.851Z,12.61
2022-11-09T15:48:55.851Z,12.59
2022-11-09T15:51:27.334Z,12.53
2022-11-09T15:53:58.861Z,12.49
2022-11-09T15:56:30.370Z,12.42
2022-11-09T15:59:01.936Z,12.38
2022-11-09T16:01:33.898Z,12.30
2022-11-09T16:04:05.415Z,12.26
2022-11-09T16:06:37.284Z,12.22
2022-11-09T16:09:08.839Z,12.14
2022-11-09T16:11:40.788Z,12.12
2022-11-09T16:14:12.303Z,12.09
2022-11-09T16:16:44.196Z,12.05
2022-11-09T16:19:15.688Z,12.04
2022-11-09T16:21:47.507Z,12.03
2022-11-09T16:24:19.000Z,12.00
2022-11-09T16:26:50.859Z,11.98
2022-11-09T16:29:22.359Z,11.98
2022-11-09T16:31:54.316Z,11.96
2022-11-09T16:34:25.822Z,11.93
2022-11-09T16:36:57.699Z,11.90
2022-11-09T16:39:29.206Z,11.93
2022-11-09T16:42:01.923Z,11.89
2022-11-09T16:44:34.048Z,11.92
2022-11-09T16:47:05.881Z,11.93
2022-11-09T16:49:37.401Z,11.91
2022-11-09T16:52:09.775Z,11.86
2022-11-09T16:54:41.338Z,11.81
2022-11-09T16:57:13.296Z,11.83
2022-11-09T16:59:44.844Z,11.81
2022-11-09T17:02:16.750Z,11.79
2022-11-09T17:04:48.268Z,11.78
2022-11-09T17:07:20.325Z,11.77
2022-11-09T17:09:51.834Z,11.76
2022-11-09T17:12:23.866Z,11.73
2022-11-09T17:14:55.359Z,11.70
2022-11-09T17:17:27.352Z,11.65
2022-11-09T17:19:59.660Z,11.63
2022-11-09T17:22:31.516Z,11.61
2022-11-09T17:25:03.147Z,11.57
2022-11-09T17:27:35.151Z,11.56
2022-11-09T17:30:06.701Z,11.53
2022-11-09T17:32:38.714Z,11.54
2022-11-09T17:35:10.220Z,11.50
2022-11-09T17:37:42.676Z,11.47
2022-11-09T17:40:14.161Z,11.42
2022-11-09T17:42:45.668Z,11.36
2022-11-09T17:45:17.209Z,11.34
2022-11-09T17:47:49.208Z,11.30
2022-11-09T17:50:21.342Z,11.32
2022-11-09T17:52:53.439Z,11.32
2022-11-09T17:55:24.951Z,10.88
2022-11-09T17:57:56.860Z,11.31
2022-11-09T18:00:28.440Z,11.30
2022-11-09T18:03:00.342Z,11.27
2022-11-09T18:05:31.933Z,11.27
2022-11-09T18:08:03.803Z,11.29
2022-11-09T18:10:35.304Z,11.30
2022-11-09T18:13:07.198Z,11.34
2022-11-09T18:15:38.693Z,11.37
2022-11-09T18:18:10.539Z,11.41
2022-11-09T18:20:42.067Z,11.46
2022-11-09T18:23:14.260Z,11.44
2022-11-09T18:25:45.823Z,11.44
2022-11-09T18:28:17.790Z,11.47
2022-11-09T18:30:49.548Z,11.54
2022-11-09T18:33:21.092Z,11.52
2022-11-09T18:35:52.600Z,11.63
2022-11-09T18:38:29.120Z,11.68
2022-11-09T18:41:01.225Z,11.78
2022-11-09T18:43:32.922Z,11.85
2022-11-09T18:46:04.446Z,11.95
2022-11-09T18:48:37.752Z,12.02
2022-11-09T18:51:09.327Z,12.10
2022-11-09T18:53:41.229Z,12.16
2022-11-09T18:56:18.197Z,12.20
2022-11-09T18:58:50.123Z,12.22
2022-11-09T19:01:28.590Z,12.19
2022-11-09T19:04:01.829Z,12.17
2022-11-09T19:06:33.724Z,12.10
2022-11-09T19:09:23.914Z,12.03
2022-11-09T19:11:55.923Z,11.96
2022-11-09T19:14:27.406Z,11.96
2022-11-09T19:16:59.171Z,11.91
2022-11-09T19:19:30.682Z,11.83
2022-11-09T19:22:02.502Z,11.74
2022-11-09T19:24:34.108Z,11.71
2022-11-09T19:27:06.067Z,11.64
2022-11-09T19:29:37.595Z,11.59
2022-11-09T19:32:09.496Z,11.52
2022-11-09T19:34:42.699Z,11.47
2022-11-09T19:37:14.701Z,11.43
2022-11-09T19:39:47.628Z,11.39
2022-11-09T19:42:19.548Z,11.38
2022-11-09T19:44:56.177Z,11.36
2022-11-09T19:47:28.363Z,11.31
2022-11-09T19:49:59.907Z,11.24
2022-11-09T19:52:31.823Z,11.21
2022-11-09T19:55:03.390Z,11.13
2022-11-09T19:57:35.297Z,11.06
2022-11-09T20:00:07.385Z,11.03
2022-11-09T20:02:39.219Z,11.02
2022-11-09T20:05:10.728Z,11.01
2022-11-09T20:07:43.787Z,11.02
2022-11-09T20:10:16.210Z,11.00
2022-11-09T20:12:51.232Z,11.01
2022-11-09T20:15:22.792Z,11.03
2022-11-09T20:17:54.620Z,11.02
2022-11-09T20:20:26.136Z,11.04
2022-11-09T20:22:57.978Z,11.03
2022-11-09T20:25:29.498Z,11.01
2022-11-09T20:28:01.345Z,11.01
2022-11-09T20:30:33.088Z,11.02
2022-11-09T20:33:04.657Z,11.01
2022-11-09T20:35:36.161Z,10.99
2022-11-09T20:38:07.692Z,10.99
2022-11-09T20:40:39.213Z,10.99
2022-11-09T20:43:11.106Z,10.93
2022-11-09T20:45:42.583Z,10.93
2022-11-09T20:48:31.416Z,10.94
2022-11-09T20:51:06.496Z,10.96
2022-11-09T20:53:38.082Z,10.96
2022-11-09T20:56:09.931Z,10.96
2022-11-09T20:58:41.506Z,10.98
2022-11-09T21:01:13.525Z,10.97
2022-11-09T21:03:45.100Z,10.97
2022-11-09T21:06:16.610Z,10.97
2022-11-09T21:08:49.853Z,10.98
2022-11-09T21:11:23.986Z,10.98
2022-11-09T21:13:55.489Z,9.92
2022-11-09T21:16:27.399Z,10.98
2022-11-09T21:18:58.903Z,10.96
2022-11-09T21:21:36.075Z,10.96
2022-11-09T21:24:26.890Z,10.94
2022-11-09T21:27:17.402Z,10.94
2022-11-09T21:29:51.744Z,10.95
2022-11-09T21:32:23.615Z,10.93
2022-11-09T21:34:55.210Z,10.90
2022-11-09T21:37:27.030Z,10.89
2022-11-09T21:39:58.556Z,10.88
2022-11-09T21:42:30.506Z,10.88
2022-11-09T21:45:02.040Z,10.87
2022-11-09T21:47:33.857Z,10.94
2022-11-09T21:50:11.144Z,10.95
2022-11-09T21:52:44.362Z,10.97
2022-11-09T21:55:16.266Z,10.97
2022-11-09T21:57:47.757Z,10.98
2022-11-09T22:00:19.643Z,11.01
2022-11-09T22:02:51.147Z,11.03
2022-11-09T22:05:23.357Z,11.10
2022-11-09T22:07:54.921Z,11.14
2022-11-09T22:10:26.804Z,11.21
2022-11-09T22:13:16.964Z,11.27
2022-11-09T22:16:06.898Z,11.32
2022-11-09T22:18:57.387Z,11.34
2022-11-09T22:21:29.270Z,11.41
2022-11-09T22:24:00.772Z,11.47
2022-11-09T22:26:32.298Z,11.56
2022-11-09T22:29:03.829Z,11.62
2022-11-09T22:31:35.669Z,11.66
2022-11-09T22:34:07.168Z,11.68
2022-11-09T22:36:38.930Z,11.69
2022-11-09T22:39:10.454Z,11.72
2022-11-09T22:41:42.267Z,11.74
2022-11-09T22:44:13.813Z,11.72
2022-11-09T22:46:45.645Z,11.71
2022-11-09T22:49:19.071Z,11.71
2022-11-09T22:51:52.345Z,11.70
2022-11-09T22:54:23.869Z,11.67
2022-11-09T22:56:55.714Z,11.68
2022-11-09T22:59:27.210Z,11.65
2022-11-09T23:01:59.086Z,11.64
2022-11-09T23:04:30.630Z,11.62
2022-11-09T23:07:02.263Z,11.64
2022-11-09T23:09:33.791Z,11.67
2022-11-09T23:12:05.629Z,11.65
2022-11-09T23:14:56.212Z,11.63
2022-11-09T23:17:46.849Z,11.64
2022-11-09T23:20:18.367Z,11.65
2022-11-09T23:22:49.985Z,11.66
2022-11-09T23:25:40.108Z,11.69
2022-11-09T23:28:11.627Z,11.71
2022-11-09T23:30:43.146Z,11.70
2022-11-09T23:33:15.027Z,11.67
2022-11-09T23:35:46.528Z,11.65
2022-11-09T23:38:18.039Z,11.64
2022-11-09T23:40:49.569Z,11.58
2022-11-09T23:43:21.921Z,11.59
2022-11-09T23:45:53.757Z,11.56
2022-11-09T23:48:25.655Z,11.55
2022-11-09T23:50:57.592Z,11.51
2022-11-09T23:53:29.117Z,11.51
2022-11-09T23:56:01.134Z,11.52
2022-11-09T23:58:32.694Z,11.49
